Mystic Dancer — WDH2986 — position and weather

sailwx.info

Track history (hours):
 
Tides and Currents Weather Stations Pressure Air Temp Water Temp Dewpoint Dewpoint Depression Visibility Wind Speed Wind Dir Waves Ship Positions

Mystic Dancer

Owner: Knorr, Bill, Boulder, CO. More information available from US FCC via Universal Licensing System and Coast Guard Vessel Documentation Center.

Last reported at 2018-Jun-21 19:30 UTC. Time now 2018-Jun-25 08:20 UTC.
Position N 50°26' W 125°15'.

Length 18 m.

Type: Pleasure craft. MMSI: 367603180.

Date/timePositionNaut miles runAvg speedWind from/ knotsBaromVisibWave heightAir tempDewpointWater temp
2018-Jun-21 19:30N 50°26' W 125°15'5 7.7
2018-Jun-21 18:51N 50°23' W 125°09'3 8.2
2018-Jun-21 18:30N 50°20' W 125°07'4 8.4
2018-Jun-21 18:00N 50°16' W 125°04'4 8.4
2018-Jun-21 17:29N 50°14' W 124°59'5 9.6
2018-Jun-21 17:00N 50°10' W 124°55'4 8.9
2018-Jun-21 16:30N 50°06' W 124°53'3 4.8
2018-Jun-21 15:57N 50°04' W 124°56'0 0.0
2018-Jun-21 02:31N 50°04' W 124°56'0 2.3
2018-Jun-21 02:24N 50°04' W 124°56'3 7.8
2018-Jun-21 02:00N 50°01' W 124°52'5 9.4
2018-Jun-21 01:30N 49°58' W 124°47'5 9.5
2018-Jun-21 00:58N 49°55' W 124°41'5 9.5
2018-Jun-21 00:26N 49°51' W 124°36'6 9.1
2018-Jun-20 23:47N 49°47' W 124°29'3 9.2
2018-Jun-20 23:25N 49°46' W 124°24'  
2018-Jun-17 18:09N 49°19' W 123°14'2 9.2
2018-Jun-17 17:59N 49°19' W 123°12'3 0.1
2018-Jun-15 17:05N 49°17' W 123°08'0 0.1
2018-Jun-15 16:45N 49°17' W 123°08'1 3.2
2018-Jun-15 16:26N 49°18' W 123°08'27 1.5
2018-Jun-14 22:12N 48°55' W 123°26'2 8.5
2018-Jun-14 21:58N 48°53' W 123°24'5 8.8
2018-Jun-14 21:26N 48°50' W 123°19'25 8.5
2018-Jun-14 18:27N 48°39' W 122°44'6 7.1
2018-Jun-14 17:33N 48°34' W 122°40'1 5.6
2018-Jun-14 17:26N 48°33' W 122°40'3 7.6
2018-Jun-14 17:00N 48°31' W 122°36'  
Track history (hours):
 
Tides and Currents Weather Stations Pressure Air Temp Water Temp Dewpoint Dewpoint Depression Visibility Wind Speed Wind Dir Waves Ship Positions

Mystic Dancer

Owner: Knorr, Bill, Boulder, CO. More information available from US FCC via Universal Licensing System and Coast Guard Vessel Documentation Center.

Last reported at 2018-Jun-21 19:30 UTC. Time now 2018-Jun-25 08:20 UTC.
Position N 50°26' W 125°15'.

Length 18 m.

Type: Pleasure craft. MMSI: 367603180.

Date/timePositionNaut miles runAvg speedWind from/ knotsBaromVisibWave heightAir tempDewpointWater temp
2018-Jun-21 19:30N 50°26' W 125°15'5 7.7
2018-Jun-21 18:51N 50°23' W 125°09'3 8.2
2018-Jun-21 18:30N 50°20' W 125°07'4 8.4
2018-Jun-21 18:00N 50°16' W 125°04'4 8.4
2018-Jun-21 17:29N 50°14' W 124°59'5 9.6
2018-Jun-21 17:00N 50°10' W 124°55'4 8.9
2018-Jun-21 16:30N 50°06' W 124°53'3 4.8
2018-Jun-21 15:57N 50°04' W 124°56'0 0.0
2018-Jun-21 02:31N 50°04' W 124°56'0 2.3
2018-Jun-21 02:24N 50°04' W 124°56'3 7.8
2018-Jun-21 02:00N 50°01' W 124°52'5 9.4
2018-Jun-21 01:30N 49°58' W 124°47'5 9.5
2018-Jun-21 00:58N 49°55' W 124°41'5 9.5
2018-Jun-21 00:26N 49°51' W 124°36'6 9.1
2018-Jun-20 23:47N 49°47' W 124°29'3 9.2
2018-Jun-20 23:25N 49°46' W 124°24'  
2018-Jun-17 18:09N 49°19' W 123°14'2 9.2
2018-Jun-17 17:59N 49°19' W 123°12'3 0.1
2018-Jun-15 17:05N 49°17' W 123°08'0 0.1
2018-Jun-15 16:45N 49°17' W 123°08'1 3.2
2018-Jun-15 16:26N 49°18' W 123°08'27 1.5
2018-Jun-14 22:12N 48°55' W 123°26'2 8.5
2018-Jun-14 21:58N 48°53' W 123°24'5 8.8
2018-Jun-14 21:26N 48°50' W 123°19'25 8.5
2018-Jun-14 18:27N 48°39' W 122°44'6 7.1
2018-Jun-14 17:33N 48°34' W 122°40'1 5.6
2018-Jun-14 17:26N 48°33' W 122°40'3 7.6
2018-Jun-14 17:00N 48°31' W 122°36'  

Dump ship's entire track history